Life Of Riley — WDH5953 — position and weather

sailwx.info

Track history (hours):
 
Tides and Currents Weather Stations Pressure Air Temp Water Temp Dewpoint Dewpoint Depression Visibility Wind Speed Wind Dir Waves Ship Positions

Life Of Riley

Owner: Riley, Lucien S, Glendale, CA. More information available from US FCC via Universal Licensing System and Coast Guard Vessel Documentation Center.

Last reported at 2018-Aug-20 16:26 UTC. Time now 2018-Aug-20 16:48 UTC.
Position N 48°40' W 123°24'.

Length 30 m.

Type: Pleasure craft. MMSI: 367633140.

Date/timePositionNaut miles runAvg speedWind from/ knotsBaromVisibWave heightAir tempDewpointWater temp
2018-Aug-20 16:26N 48°40' W 123°24'0 0.0
2018-Aug-20 16:02N 48°40' W 123°24'0 0.1
2018-Aug-20 15:59N 48°40' W 123°24'0 0.0
2018-Aug-20 15:26N 48°40' W 123°24'0 0.0
2018-Aug-20 15:02N 48°40' W 123°24'0 0.1
2018-Aug-20 14:56N 48°40' W 123°24'0 0.0
2018-Aug-20 14:29N 48°40' W 123°24'0 0.0
2018-Aug-20 13:59N 48°40' W 123°24'0 0.0
2018-Aug-20 13:29N 48°40' W 123°24'0 0.0
2018-Aug-20 13:02N 48°40' W 123°24'0 0.0
2018-Aug-20 12:59N 48°40' W 123°24'0 0.0
2018-Aug-20 12:29N 48°40' W 123°24'0 0.0
2018-Aug-20 12:02N 48°40' W 123°24'0 0.1
2018-Aug-20 11:59N 48°40' W 123°24'0 0.0
2018-Aug-20 11:29N 48°40' W 123°24'0 0.0
2018-Aug-20 11:02N 48°40' W 123°24'0 0.1
2018-Aug-20 10:56N 48°40' W 123°24'0 0.0
2018-Aug-20 10:26N 48°40' W 123°24'0 0.0
2018-Aug-20 10:02N 48°40' W 123°24'0 0.0
2018-Aug-20 09:59N 48°40' W 123°24'0 0.0
2018-Aug-20 09:29N 48°40' W 123°24'0 0.0
2018-Aug-20 09:02N 48°40' W 123°24'0 0.0
2018-Aug-20 08:59N 48°40' W 123°24'0 0.0
2018-Aug-20 08:29N 48°40' W 123°24'0 0.0
2018-Aug-20 08:02N 48°40' W 123°24'0 0.0
2018-Aug-20 07:59N 48°40' W 123°24'0 0.0
2018-Aug-20 07:29N 48°40' W 123°24'0 0.0
2018-Aug-20 06:56N 48°40' W 123°24'0 0.0
2018-Aug-20 06:29N 48°40' W 123°24'0 0.0
2018-Aug-20 05:59N 48°40' W 123°24'0 0.0
2018-Aug-20 05:26N 48°40' W 123°24'0 0.0
2018-Aug-20 05:02N 48°40' W 123°24'0 0.0
2018-Aug-20 04:59N 48°40' W 123°24'0 0.0
2018-Aug-20 04:44N 48°40' W 123°24'0 0.0
2018-Aug-20 04:23N 48°40' W 123°24'0 0.0
2018-Aug-20 03:59N 48°40' W 123°24'0 0.0
2018-Aug-20 03:29N 48°40' W 123°24'0 0.0
2018-Aug-20 02:59N 48°40' W 123°24'0 0.0
2018-Aug-20 02:29N 48°40' W 123°24'0 0.0
2018-Aug-20 01:53N 48°40' W 123°24'0 0.0
2018-Aug-20 01:29N 48°40' W 123°24'0 0.0
2018-Aug-20 00:59N 48°40' W 123°24'0 0.0
2018-Aug-20 00:23N 48°40' W 123°24'0 0.0
2018-Aug-19 23:59N 48°40' W 123°24'0 0.0
2018-Aug-19 23:17N 48°40' W 123°24'0 0.0
2018-Aug-19 22:59N 48°40' W 123°24'0 0.0
2018-Aug-19 22:29N 48°40' W 123°24'0 0.0
2018-Aug-19 21:59N 48°40' W 123°24'3 6.4
2018-Aug-19 21:30N 48°42' W 123°21'810.4
2018-Aug-19 20:44N 48°50' W 123°25'310.8
2018-Aug-19 20:29N 48°53' W 123°27'810.6
2018-Aug-19 19:46N 48°58' W 123°35'3 9.6
2018-Aug-19 19:26N 49°01' W 123°35'5 9.5
2018-Aug-19 18:56N 49°06' W 123°37'511.0
2018-Aug-19 18:30N 49°10' W 123°39'611.5
2018-Aug-19 18:00N 49°14' W 123°46'611.2
2018-Aug-19 17:27N 49°17' W 123°54'511.4
2018-Aug-19 16:58N 49°20' W 124°01'42 1.9
2018-Aug-18 19:12N 49°46' W 124°53'310.4
2018-Aug-18 18:53N 49°48' W 124°56'410.5
2018-Aug-18 18:29N 49°51' W 125°01'510.6
2018-Aug-18 17:59N 49°55' W 125°06'611.6
2018-Aug-18 17:28N 49°60' W 125°12'511.7
2018-Aug-18 17:00N 50°05' W 125°15'1 1.5
2018-Aug-18 16:20N 50°05' W 125°13'0 0.0
2018-Aug-18 15:53N 50°05' W 125°13'0 0.0
2018-Aug-18 15:23N 50°05' W 125°13'0 0.0
2018-Aug-18 14:56N 50°05' W 125°13'0 0.1
2018-Aug-18 14:23N 50°05' W 125°13'0 0.0
2018-Aug-18 13:50N 50°05' W 125°13'0 0.0
2018-Aug-18 13:29N 50°05' W 125°13'0 0.0
2018-Aug-18 12:59N 50°05' W 125°13'0 0.0
2018-Aug-18 12:14N 50°05' W 125°13'0 0.0
2018-Aug-18 11:59N 50°05' W 125°13'0 0.0
2018-Aug-18 11:26N 50°05' W 125°13'0 0.0
2018-Aug-18 10:53N 50°05' W 125°13'0 0.1
2018-Aug-18 10:29N 50°05' W 125°13'0 0.1
2018-Aug-18 09:56N 50°05' W 125°13'0 0.0
2018-Aug-18 09:26N 50°05' W 125°13'0 0.0
2018-Aug-18 08:56N 50°05' W 125°13'0 0.1
2018-Aug-18 08:20N 50°05' W 125°13'0 0.1
2018-Aug-18 07:50N 50°05' W 125°13'0 0.0
2018-Aug-18 07:26N 50°05' W 125°13'0 0.0
2018-Aug-18 06:59N 50°05' W 125°13'0 0.0
2018-Aug-18 06:26N 50°05' W 125°13'0 0.1
2018-Aug-18 05:53N 50°05' W 125°13'0 0.0
2018-Aug-18 05:29N 50°05' W 125°13'0 0.0
2018-Aug-18 04:59N 50°05' W 125°13'0 0.0
2018-Aug-18 04:26N 50°05' W 125°13'0 0.0
2018-Aug-18 03:59N 50°05' W 125°13'0 0.0
2018-Aug-18 03:20N 50°05' W 125°13'0 0.0
2018-Aug-18 02:56N 50°05' W 125°13'0 0.8
2018-Aug-18 02:29N 50°04' W 125°13'3 6.5
2018-Aug-18 02:00N 50°06' W 125°17'712.1
2018-Aug-18 01:27N 50°12' W 125°22'1 0.1
2018-Aug-17 18:35N 50°11' W 125°22'110.6
2018-Aug-17 18:28N 50°10' W 125°22'5 9.7
2018-Aug-17 18:00N 50°06' W 125°18'4 8.9
2018-Aug-17 17:30N 50°02' W 125°14'0 0.4
2018-Aug-17 16:58N 50°02' W 125°15'0 0.0
2018-Aug-17 16:28N 50°02' W 125°15'0 0.0
2018-Aug-17 15:58N 50°02' W 125°15'0 0.0
2018-Aug-17 15:22N 50°02' W 125°15'0 0.0
2018-Aug-17 14:58N 50°02' W 125°15'0 0.0
2018-Aug-17 13:58N 50°02' W 125°15'0 0.0
2018-Aug-17 13:28N 50°02' W 125°15'0 0.0
2018-Aug-17 12:58N 50°02' W 125°15'0 0.0
2018-Aug-17 12:28N 50°02' W 125°15'0 0.0
2018-Aug-17 11:58N 50°02' W 125°15'0 0.0
2018-Aug-17 11:28N 50°02' W 125°15'0 0.0
2018-Aug-17 10:58N 50°02' W 125°15'0 0.0
2018-Aug-17 10:28N 50°02' W 125°15'0 0.0
2018-Aug-17 09:58N 50°02' W 125°15'0 0.0
2018-Aug-17 09:28N 50°02' W 125°15'0 0.0
2018-Aug-17 08:58N 50°02' W 125°15'0 0.0
2018-Aug-17 08:28N 50°02' W 125°15'0 0.0
2018-Aug-17 07:58N 50°02' W 125°15'0 0.0
2018-Aug-17 07:28N 50°02' W 125°15'0 0.0
2018-Aug-17 06:58N 50°02' W 125°15'0 0.0
2018-Aug-17 06:28N 50°02' W 125°15'0 0.0
2018-Aug-17 05:58N 50°02' W 125°15'0 0.0
2018-Aug-17 05:28N 50°02' W 125°15'0 0.0
2018-Aug-17 04:58N 50°02' W 125°15'0 0.0
2018-Aug-17 04:28N 50°02' W 125°15'0 0.0
2018-Aug-17 03:58N 50°02' W 125°15'0 0.0
2018-Aug-17 03:28N 50°02' W 125°15'0 0.0
2018-Aug-17 02:58N 50°02' W 125°15'0 0.0
2018-Aug-17 02:28N 50°02' W 125°15'0 0.0
2018-Aug-17 01:58N 50°02' W 125°15'0 0.0
2018-Aug-17 01:28N 50°02' W 125°15'0 0.0
2018-Aug-17 00:58N 50°02' W 125°15'0 0.0
2018-Aug-17 00:28N 50°02' W 125°15'0 0.0
2018-Aug-16 23:58N 50°02' W 125°15'0 0.0
2018-Aug-16 23:28N 50°02' W 125°15'0 0.0
2018-Aug-16 22:58N 50°02' W 125°15'0 0.0
2018-Aug-16 22:28N 50°02' W 125°15'0 0.0
2018-Aug-16 21:59N 50°02' W 125°15'0 0.0
2018-Aug-16 21:28N 50°02' W 125°15'0 0.0
2018-Aug-16 20:58N 50°02' W 125°15'0 0.0
2018-Aug-16 20:28N 50°02' W 125°15'0 0.0
2018-Aug-16 19:58N 50°02' W 125°15'0 0.0
2018-Aug-16 19:28N 50°02' W 125°15'0 0.0
2018-Aug-16 18:58N 50°02' W 125°15'0 0.0
2018-Aug-16 18:22N 50°02' W 125°15'0 0.0
2018-Aug-16 17:58N 50°02' W 125°15'0 0.0
2018-Aug-16 17:28N 50°02' W 125°15'0 0.0
2018-Aug-16 16:55N 50°02' W 125°15'0 0.0
2018-Aug-16 16:28N 50°02' W 125°15'0 0.0
2018-Aug-16 15:58N 50°02' W 125°15'0 0.0
2018-Aug-16 15:28N 50°02' W 125°15'0 0.0
2018-Aug-16 14:58N 50°02' W 125°15'0 0.0
2018-Aug-16 14:28N 50°02' W 125°15'0 0.0
2018-Aug-16 13:58N 50°02' W 125°15'0 0.0
2018-Aug-16 13:28N 50°02' W 125°15'0 0.0
2018-Aug-16 12:58N 50°02' W 125°15'0 0.0
2018-Aug-16 12:25N 50°02' W 125°15'0 0.0
2018-Aug-16 11:58N 50°02' W 125°15'0 0.0
2018-Aug-16 11:28N 50°02' W 125°15'0 0.0
2018-Aug-16 10:55N 50°02' W 125°15'0 0.0
2018-Aug-16 10:28N 50°02' W 125°15'0 0.0
2018-Aug-16 09:58N 50°02' W 125°15'0 0.0
2018-Aug-16 09:28N 50°02' W 125°15'0 0.0
2018-Aug-16 08:58N 50°02' W 125°15'0 0.0
2018-Aug-16 08:28N 50°02' W 125°15'0 0.0
2018-Aug-16 07:58N 50°02' W 125°15'0 0.0
2018-Aug-16 07:28N 50°02' W 125°15'0 0.0
2018-Aug-16 06:58N 50°02' W 125°15'0 0.0
2018-Aug-16 06:28N 50°02' W 125°15'0 0.0
2018-Aug-16 05:58N 50°02' W 125°15'0 0.0
2018-Aug-16 05:28N 50°02' W 125°15'0 0.0
2018-Aug-16 04:58N 50°02' W 125°15'0 0.0
2018-Aug-16 04:28N 50°02' W 125°15'0 0.0
2018-Aug-16 03:58N 50°02' W 125°15'0 0.0
2018-Aug-16 03:28N 50°02' W 125°15'0 0.0
2018-Aug-16 02:58N 50°02' W 125°15'0 0.0
2018-Aug-16 02:28N 50°02' W 125°15'0 0.0
2018-Aug-16 01:58N 50°02' W 125°15'0 0.0
2018-Aug-16 01:28N 50°02' W 125°15'0 0.0
2018-Aug-16 00:58N 50°02' W 125°15'0 0.0
2018-Aug-16 00:28N 50°02' W 125°15'0 0.0
2018-Aug-15 23:58N 50°02' W 125°15'0 0.0
2018-Aug-15 23:29N 50°02' W 125°15'1 2.8
2018-Aug-15 22:59N 50°03' W 125°15'1 2.6
2018-Aug-15 22:28N 50°04' W 125°13'0 0.1
2018-Aug-15 21:55N 50°04' W 125°13'0 0.0
2018-Aug-15 20:58N 50°04' W 125°13'0 0.0
2018-Aug-15 20:28N 50°04' W 125°13'0 0.0
2018-Aug-15 19:55N 50°04' W 125°13'0 0.0
2018-Aug-15 19:28N 50°04' W 125°13'0 0.0
2018-Aug-15 18:46N 50°04' W 125°13'0 0.0
2018-Aug-15 18:28N 50°04' W 125°13'0 0.0
2018-Aug-15 16:04N 50°04' W 125°13'0 0.0
2018-Aug-15 15:58N 50°04' W 125°13'0 0.0
2018-Aug-15 15:25N 50°04' W 125°13'0 0.0
2018-Aug-15 14:55N 50°04' W 125°13'0 0.1
2018-Aug-15 14:28N 50°04' W 125°13'0 0.1
2018-Aug-15 13:55N 50°04' W 125°13'0 0.0
2018-Aug-15 13:25N 50°04' W 125°13'0 0.0
2018-Aug-15 12:55N 50°04' W 125°13'0 0.0
2018-Aug-15 12:25N 50°04' W 125°13'0 0.0
2018-Aug-15 11:40N 50°04' W 125°13'0 0.0
2018-Aug-15 11:28N 50°04' W 125°13'0 0.1
2018-Aug-15 10:49N 50°04' W 125°13'0 0.0
2018-Aug-15 10:19N 50°04' W 125°13'0 0.0
2018-Aug-15 09:58N 50°04' W 125°13'0 0.0
2018-Aug-15 09:28N 50°04' W 125°13'0 0.0
2018-Aug-15 08:58N 50°04' W 125°13'0 0.0
2018-Aug-15 08:25N 50°04' W 125°13'0 0.0
2018-Aug-15 07:58N 50°04' W 125°13'0 0.0
2018-Aug-15 07:28N 50°04' W 125°13'0 0.0
2018-Aug-15 06:55N 50°04' W 125°13'0 0.0
2018-Aug-15 06:28N 50°04' W 125°13'0 0.0
2018-Aug-15 05:55N 50°04' W 125°13'0 0.1
2018-Aug-15 05:28N 50°04' W 125°13'0 0.1
2018-Aug-15 04:55N 50°04' W 125°13'0 0.0
2018-Aug-15 04:22N 50°04' W 125°13'0 0.1
2018-Aug-15 03:58N 50°04' W 125°13'0 0.0
2018-Aug-15 03:25N 50°04' W 125°13'0 0.0
2018-Aug-15 02:58N 50°04' W 125°13'0 0.0
2018-Aug-15 02:28N 50°04' W 125°13'0 0.0
2018-Aug-15 01:55N 50°04' W 125°13'0 0.0
2018-Aug-15 01:28N 50°04' W 125°13'0 0.0
2018-Aug-15 00:52N 50°04' W 125°13'0 0.1
2018-Aug-15 00:25N 50°04' W 125°13'0 0.1
2018-Aug-14 23:49N 50°04' W 125°13'0 0.0
2018-Aug-14 23:01N 50°04' W 125°13'0 0.0
2018-Aug-14 22:58N 50°04' W 125°13'0 0.1
2018-Aug-14 22:28N 50°04' W 125°13'0 0.1
2018-Aug-14 21:55N 50°04' W 125°13'0 0.0
2018-Aug-14 21:16N 50°04' W 125°13'0 0.0
2018-Aug-14 20:55N 50°04' W 125°13'0 0.1
2018-Aug-14 20:25N 50°04' W 125°13'0 0.0
2018-Aug-14 19:43N 50°04' W 125°13'0 0.0
2018-Aug-14 19:19N 50°04' W 125°13'0 0.0
2018-Aug-14 18:58N 50°04' W 125°13'0 0.0
2018-Aug-14 18:25N 50°04' W 125°13'0 0.0
2018-Aug-14 17:55N 50°04' W 125°13'0 0.0
2018-Aug-14 17:19N 50°04' W 125°13'0 0.1
2018-Aug-14 16:58N 50°04' W 125°13'0 0.0
2018-Aug-14 16:28N 50°04' W 125°13'0 0.0
2018-Aug-14 15:58N 50°04' W 125°13'0 0.0
2018-Aug-14 15:25N 50°04' W 125°13'0 0.0
2018-Aug-14 14:55N 50°04' W 125°13'0 0.0
2018-Aug-14 14:25N 50°04' W 125°13'0 0.0
2018-Aug-14 13:55N 50°04' W 125°13'0 0.0
2018-Aug-14 13:28N 50°04' W 125°13'0 0.0
2018-Aug-14 12:58N 50°04' W 125°13'0 0.0
2018-Aug-14 12:28N 50°04' W 125°13'0 0.0
2018-Aug-14 11:55N 50°04' W 125°13'0 0.0
2018-Aug-14 11:25N 50°04' W 125°13'0 0.0
2018-Aug-14 10:55N 50°04' W 125°13'0 0.0
2018-Aug-14 10:28N 50°04' W 125°13'0 0.1
2018-Aug-14 09:52N 50°04' W 125°13'0 0.0
2018-Aug-14 09:22N 50°04' W 125°13'0 0.1
2018-Aug-14 08:55N 50°04' W 125°13'0 0.1
2018-Aug-14 08:28N 50°04' W 125°13'0 0.1
2018-Aug-14 07:58N 50°04' W 125°13'0 0.1
2018-Aug-14 07:25N 50°04' W 125°13'0 0.0
2018-Aug-14 06:55N 50°04' W 125°13'0 0.0
2018-Aug-14 06:28N 50°04' W 125°13'0 0.0
2018-Aug-14 05:58N 50°04' W 125°13'0 0.0
2018-Aug-14 05:25N 50°04' W 125°13'0 0.0
2018-Aug-14 04:52N 50°04' W 125°13'0 0.0
2018-Aug-14 04:28N 50°04' W 125°13'0 0.0
2018-Aug-14 03:55N 50°04' W 125°13'0 0.0
2018-Aug-14 03:28N 50°04' W 125°13'0 0.1
2018-Aug-14 02:52N 50°04' W 125°13'0 0.0
2018-Aug-14 02:13N 50°04' W 125°13'0 0.0
2018-Aug-14 01:58N 50°04' W 125°13'0 0.0
2018-Aug-14 01:25N 50°04' W 125°13'0 0.0
2018-Aug-14 00:49N 50°04' W 125°13'0 0.0
2018-Aug-14 00:28N 50°04' W 125°13'0 0.0
2018-Aug-13 23:58N 50°04' W 125°13'0 0.0
2018-Aug-13 23:25N 50°04' W 125°13'0 0.1
2018-Aug-13 22:58N 50°04' W 125°13'0 0.1
2018-Aug-13 22:10N 50°04' W 125°13'0 0.1
2018-Aug-13 21:49N 50°04' W 125°13'0 0.1
2018-Aug-13 21:22N 50°04' W 125°13'0 0.0
2018-Aug-13 20:58N 50°04' W 125°13'0 0.1
2018-Aug-13 20:28N 50°04' W 125°13'0 0.0
2018-Aug-13 19:55N 50°04' W 125°13'0 0.0
2018-Aug-13 19:16N 50°04' W 125°13'0 0.0
2018-Aug-13 18:58N 50°04' W 125°13'0 0.0
2018-Aug-13 18:28N 50°04' W 125°13'0 0.0
2018-Aug-13 17:46N 50°04' W 125°13'0 0.1
2018-Aug-13 17:19N 50°04' W 125°13'0 0.1
2018-Aug-13 16:58N 50°04' W 125°13'0 0.1
2018-Aug-13 16:25N 50°04' W 125°13'0 0.0
2018-Aug-13 15:58N 50°04' W 125°13'0 0.0
2018-Aug-13 14:19N 50°04' W 125°13'0 0.0
2018-Aug-13 13:55N 50°04' W 125°13'0 0.1
2018-Aug-13 13:28N 50°04' W 125°13'0 0.0
2018-Aug-13 12:55N 50°04' W 125°13'0 0.0
2018-Aug-13 12:28N 50°04' W 125°13'0 0.0
2018-Aug-13 11:55N 50°04' W 125°13'0 0.0
2018-Aug-13 11:25N 50°04' W 125°13'0 0.1
2018-Aug-13 10:58N 50°04' W 125°13'0 0.1
2018-Aug-13 10:25N 50°04' W 125°13'0 0.1
2018-Aug-13 09:58N 50°04' W 125°13'0 0.0
2018-Aug-13 09:28N 50°04' W 125°13'0 0.0
2018-Aug-13 08:55N 50°04' W 125°13'0 0.0
2018-Aug-13 08:28N 50°04' W 125°13'0 0.0
2018-Aug-13 07:52N 50°04' W 125°13'0 0.0
2018-Aug-13 07:25N 50°04' W 125°13'0 0.0
2018-Aug-13 06:49N 50°04' W 125°13'0 0.0
2018-Aug-13 06:13N 50°04' W 125°13'0 0.0
2018-Aug-13 05:52N 50°04' W 125°13'0 0.0
2018-Aug-13 05:16N 50°04' W 125°13'0 0.0
2018-Aug-13 04:52N 50°04' W 125°13'0 0.0
2018-Aug-13 04:25N 50°04' W 125°13'0 0.0
2018-Aug-13 03:58N 50°04' W 125°13'0 0.0
2018-Aug-13 03:13N 50°04' W 125°13'0 0.0
2018-Aug-13 02:58N 50°04' W 125°13'0 0.1
2018-Aug-13 02:25N 50°04' W 125°13'0 0.0
2018-Aug-13 01:52N 50°04' W 125°13'0 0.0
2018-Aug-13 01:22N 50°04' W 125°13'0 0.0
2018-Aug-13 00:58N 50°04' W 125°13'0 0.0
2018-Aug-13 00:28N 50°04' W 125°13'0 0.0
2018-Aug-12 23:55N 50°04' W 125°13'0 0.0
2018-Aug-12 23:28N 50°04' W 125°13'0 0.0
2018-Aug-12 22:58N 50°04' W 125°13'0 0.0
2018-Aug-12 22:28N 50°04' W 125°13'0 0.0
2018-Aug-12 21:58N 50°04' W 125°13'0 0.1
2018-Aug-12 21:22N 50°04' W 125°13'0 0.1
2018-Aug-12 20:58N 50°04' W 125°13'0 0.0
2018-Aug-12 20:22N 50°04' W 125°13'0 0.0
2018-Aug-12 19:58N 50°04' W 125°13'0 0.0
2018-Aug-12 19:28N 50°04' W 125°13'0 0.1
2018-Aug-12 18:49N 50°04' W 125°13'0 0.0
2018-Aug-12 18:16N 50°04' W 125°13'0 0.0
2018-Aug-12 17:58N 50°04' W 125°13'0 0.0
2018-Aug-12 17:28N 50°04' W 125°13'0 0.0
2018-Aug-12 16:58N 50°04' W 125°13'0 0.0
2018-Aug-12 16:28N 50°04' W 125°13'0 0.0
2018-Aug-12 15:58N 50°04' W 125°13'0 0.0
2018-Aug-12 15:19N 50°04' W 125°13'0 0.0
2018-Aug-12 15:00N 50°04' W 125°13'0 0.0
2018-Aug-12 14:30N 50°04' W 125°13'0 0.0
2018-Aug-12 13:30N 50°04' W 125°13'0 0.0
2018-Aug-12 13:00N 50°04' W 125°13'0 0.0
2018-Aug-12 12:24N 50°04' W 125°13'0 0.0
2018-Aug-12 12:00N 50°04' W 125°13'0 0.0
2018-Aug-12 11:30N 50°04' W 125°13'0 0.0
2018-Aug-12 10:57N 50°04' W 125°13'0 0.0
2018-Aug-12 10:30N 50°04' W 125°13'0 0.0
2018-Aug-12 09:57N 50°04' W 125°13'0 0.0
2018-Aug-12 09:30N 50°04' W 125°13'0 0.0
2018-Aug-12 08:54N 50°04' W 125°13'0 0.0
2018-Aug-12 08:30N 50°04' W 125°13'0 0.0
2018-Aug-12 07:45N 50°04' W 125°13'0 0.0
2018-Aug-12 07:30N 50°04' W 125°13'0 0.1
2018-Aug-12 07:00N 50°04' W 125°13'0 0.1
2018-Aug-12 06:27N 50°04' W 125°13'0 0.1
2018-Aug-12 05:45N 50°04' W 125°13'0 0.1
2018-Aug-12 05:21N 50°04' W 125°13'0 0.0
2018-Aug-12 04:57N 50°04' W 125°13'0 0.0
2018-Aug-12 04:30N 50°04' W 125°13'0 0.0
2018-Aug-12 03:57N 50°04' W 125°13'0 0.1
2018-Aug-12 03:30N 50°04' W 125°13'0 0.1
2018-Aug-12 03:00N 50°04' W 125°13'0 0.0
2018-Aug-12 02:24N 50°04' W 125°13'0 0.0
2018-Aug-12 01:57N 50°04' W 125°13'0 0.1
2018-Aug-12 01:27N 50°04' W 125°13'0 0.0
2018-Aug-12 00:57N 50°04' W 125°13'0 0.0
2018-Aug-12 00:27N 50°04' W 125°13'0 0.0
2018-Aug-11 23:57N 50°04' W 125°13'0 0.1
2018-Aug-11 23:30N 50°04' W 125°13'0 0.1
2018-Aug-11 23:00N 50°04' W 125°13'0 0.1
2018-Aug-11 22:30N 50°04' W 125°13'0 0.0
2018-Aug-11 22:00N 50°04' W 125°13'0 0.1
2018-Aug-11 21:30N 50°04' W 125°13'0 0.1
2018-Aug-11 20:57N 50°04' W 125°13'0 0.0
2018-Aug-11 20:27N 50°04' W 125°13'0 0.1
2018-Aug-11 19:54N 50°04' W 125°13'0 0.1
2018-Aug-11 19:30N 50°04' W 125°13'0 0.1
2018-Aug-11 18:54N 50°04' W 125°13'0 0.0
2018-Aug-11 18:21N 50°04' W 125°13'0 0.0
2018-Aug-11 17:42N 50°04' W 125°13'0 0.0
2018-Aug-11 17:30N 50°04' W 125°13'0 0.0
2018-Aug-11 16:54N 50°04' W 125°13'0 0.0
2018-Aug-11 16:24N 50°04' W 125°13'0 0.0
2018-Aug-11 15:57N 50°04' W 125°13'0 0.1
2018-Aug-11 15:30N 50°04' W 125°13'0 0.1
2018-Aug-11 15:00N 50°04' W 125°13'0 0.0
2018-Aug-11 14:30N 50°04' W 125°13'0 0.0
2018-Aug-11 13:57N 50°04' W 125°13'0 0.0
2018-Aug-11 13:09N 50°04' W 125°13'0 0.0
2018-Aug-11 13:00N 50°04' W 125°13'0 0.0
2018-Aug-11 12:27N 50°04' W 125°13'0 0.0
2018-Aug-11 12:00N 50°04' W 125°13'0 0.1
2018-Aug-11 11:30N 50°04' W 125°13'0 0.1
2018-Aug-11 11:00N 50°04' W 125°13'0 0.0
2018-Aug-11 10:30N 50°04' W 125°13'0 0.0
2018-Aug-11 09:51N 50°04' W 125°13'0 0.0
2018-Aug-11 09:27N 50°04' W 125°13'0 0.0
2018-Aug-11 08:54N 50°04' W 125°13'0 0.0
2018-Aug-11 08:27N 50°04' W 125°13'0 0.0
2018-Aug-11 08:00N 50°04' W 125°13'0 0.0
2018-Aug-11 07:12N 50°04' W 125°13'0 0.0
2018-Aug-11 07:00N 50°04' W 125°13'0 0.0
2018-Aug-11 06:24N 50°04' W 125°13'0 0.0
2018-Aug-11 05:51N 50°04' W 125°13'0 0.0
2018-Aug-11 05:21N 50°04' W 125°13'0 0.0
2018-Aug-11 05:00N 50°04' W 125°13'0 0.1
2018-Aug-11 04:24N 50°04' W 125°13'0 0.1
2018-Aug-11 03:57N 50°04' W 125°13'0 0.0
2018-Aug-11 03:27N 50°04' W 125°13'0 0.0
2018-Aug-11 02:39N 50°04' W 125°13'0 0.0
2018-Aug-11 02:27N 50°04' W 125°13'0 0.0
2018-Aug-11 01:54N 50°04' W 125°13'0 0.0
2018-Aug-11 01:30N 50°04' W 125°13'0 0.0
2018-Aug-11 01:00N 50°04' W 125°13'0 0.0
2018-Aug-11 00:30N 50°04' W 125°13'0 0.0
2018-Aug-10 23:54N 50°04' W 125°13'0 0.0
2018-Aug-10 23:30N 50°04' W 125°13'0 0.1
2018-Aug-10 23:00N 50°04' W 125°13'0 0.0
2018-Aug-10 22:30N 50°04' W 125°13'0 0.0
2018-Aug-10 21:54N 50°04' W 125°13'0 0.0
2018-Aug-10 21:24N 50°04' W 125°13'0 0.0
2018-Aug-10 20:57N 50°04' W 125°13'0 0.0
2018-Aug-10 20:30N 50°04' W 125°13'0 0.0
2018-Aug-10 20:00N 50°04' W 125°13'0 0.0
2018-Aug-10 19:24N 50°04' W 125°13'0 0.0
2018-Aug-10 19:00N 50°04' W 125°13'0 0.0
2018-Aug-10 18:24N 50°04' W 125°13'0 0.0
2018-Aug-10 17:24N 50°04' W 125°13'0 0.1
2018-Aug-10 17:00N 50°04' W 125°13'0 0.0
2018-Aug-10 16:30N 50°04' W 125°13'  
Track history (hours):
 
Tides and Currents Weather Stations Pressure Air Temp Water Temp Dewpoint Dewpoint Depression Visibility Wind Speed Wind Dir Waves Ship Positions

Life Of Riley

Owner: Riley, Lucien S, Glendale, CA. More information available from US FCC via Universal Licensing System and Coast Guard Vessel Documentation Center.

Last reported at 2018-Aug-20 16:26 UTC. Time now 2018-Aug-20 16:48 UTC.
Position N 48°40' W 123°24'.

Length 30 m.

Type: Pleasure craft. MMSI: 367633140.

Date/timePositionNaut miles runAvg speedWind from/ knotsBaromVisibWave heightAir tempDewpointWater temp
2018-Aug-20 16:26N 48°40' W 123°24'0 0.0
2018-Aug-20 16:02N 48°40' W 123°24'0 0.1
2018-Aug-20 15:59N 48°40' W 123°24'0 0.0
2018-Aug-20 15:26N 48°40' W 123°24'0 0.0
2018-Aug-20 15:02N 48°40' W 123°24'0 0.1
2018-Aug-20 14:56N 48°40' W 123°24'0 0.0
2018-Aug-20 14:29N 48°40' W 123°24'0 0.0
2018-Aug-20 13:59N 48°40' W 123°24'0 0.0
2018-Aug-20 13:29N 48°40' W 123°24'0 0.0
2018-Aug-20 13:02N 48°40' W 123°24'0 0.0
2018-Aug-20 12:59N 48°40' W 123°24'0 0.0
2018-Aug-20 12:29N 48°40' W 123°24'0 0.0
2018-Aug-20 12:02N 48°40' W 123°24'0 0.1
2018-Aug-20 11:59N 48°40' W 123°24'0 0.0
2018-Aug-20 11:29N 48°40' W 123°24'0 0.0
2018-Aug-20 11:02N 48°40' W 123°24'0 0.1
2018-Aug-20 10:56N 48°40' W 123°24'0 0.0
2018-Aug-20 10:26N 48°40' W 123°24'0 0.0
2018-Aug-20 10:02N 48°40' W 123°24'0 0.0
2018-Aug-20 09:59N 48°40' W 123°24'0 0.0
2018-Aug-20 09:29N 48°40' W 123°24'0 0.0
2018-Aug-20 09:02N 48°40' W 123°24'0 0.0
2018-Aug-20 08:59N 48°40' W 123°24'0 0.0
2018-Aug-20 08:29N 48°40' W 123°24'0 0.0
2018-Aug-20 08:02N 48°40' W 123°24'0 0.0
2018-Aug-20 07:59N 48°40' W 123°24'0 0.0
2018-Aug-20 07:29N 48°40' W 123°24'0 0.0
2018-Aug-20 06:56N 48°40' W 123°24'0 0.0
2018-Aug-20 06:29N 48°40' W 123°24'0 0.0
2018-Aug-20 05:59N 48°40' W 123°24'0 0.0
2018-Aug-20 05:26N 48°40' W 123°24'0 0.0
2018-Aug-20 05:02N 48°40' W 123°24'0 0.0
2018-Aug-20 04:59N 48°40' W 123°24'0 0.0
2018-Aug-20 04:44N 48°40' W 123°24'0 0.0
2018-Aug-20 04:23N 48°40' W 123°24'0 0.0
2018-Aug-20 03:59N 48°40' W 123°24'0 0.0
2018-Aug-20 03:29N 48°40' W 123°24'0 0.0
2018-Aug-20 02:59N 48°40' W 123°24'0 0.0
2018-Aug-20 02:29N 48°40' W 123°24'0 0.0
2018-Aug-20 01:53N 48°40' W 123°24'0 0.0
2018-Aug-20 01:29N 48°40' W 123°24'0 0.0
2018-Aug-20 00:59N 48°40' W 123°24'0 0.0
2018-Aug-20 00:23N 48°40' W 123°24'0 0.0
2018-Aug-19 23:59N 48°40' W 123°24'0 0.0
2018-Aug-19 23:17N 48°40' W 123°24'0 0.0
2018-Aug-19 22:59N 48°40' W 123°24'0 0.0
2018-Aug-19 22:29N 48°40' W 123°24'0 0.0
2018-Aug-19 21:59N 48°40' W 123°24'3 6.4
2018-Aug-19 21:30N 48°42' W 123°21'810.4
2018-Aug-19 20:44N 48°50' W 123°25'310.8
2018-Aug-19 20:29N 48°53' W 123°27'810.6
2018-Aug-19 19:46N 48°58' W 123°35'3 9.6
2018-Aug-19 19:26N 49°01' W 123°35'5 9.5
2018-Aug-19 18:56N 49°06' W 123°37'511.0
2018-Aug-19 18:30N 49°10' W 123°39'611.5
2018-Aug-19 18:00N 49°14' W 123°46'611.2
2018-Aug-19 17:27N 49°17' W 123°54'511.4
2018-Aug-19 16:58N 49°20' W 124°01'42 1.9
2018-Aug-18 19:12N 49°46' W 124°53'310.4
2018-Aug-18 18:53N 49°48' W 124°56'410.5
2018-Aug-18 18:29N 49°51' W 125°01'510.6
2018-Aug-18 17:59N 49°55' W 125°06'611.6
2018-Aug-18 17:28N 49°60' W 125°12'511.7
2018-Aug-18 17:00N 50°05' W 125°15'1 1.5
2018-Aug-18 16:20N 50°05' W 125°13'0 0.0
2018-Aug-18 15:53N 50°05' W 125°13'0 0.0
2018-Aug-18 15:23N 50°05' W 125°13'0 0.0
2018-Aug-18 14:56N 50°05' W 125°13'0 0.1
2018-Aug-18 14:23N 50°05' W 125°13'0 0.0
2018-Aug-18 13:50N 50°05' W 125°13'0 0.0
2018-Aug-18 13:29N 50°05' W 125°13'0 0.0
2018-Aug-18 12:59N 50°05' W 125°13'0 0.0
2018-Aug-18 12:14N 50°05' W 125°13'0 0.0
2018-Aug-18 11:59N 50°05' W 125°13'0 0.0
2018-Aug-18 11:26N 50°05' W 125°13'0 0.0
2018-Aug-18 10:53N 50°05' W 125°13'0 0.1
2018-Aug-18 10:29N 50°05' W 125°13'0 0.1
2018-Aug-18 09:56N 50°05' W 125°13'0 0.0
2018-Aug-18 09:26N 50°05' W 125°13'0 0.0
2018-Aug-18 08:56N 50°05' W 125°13'0 0.1
2018-Aug-18 08:20N 50°05' W 125°13'0 0.1
2018-Aug-18 07:50N 50°05' W 125°13'0 0.0
2018-Aug-18 07:26N 50°05' W 125°13'0 0.0
2018-Aug-18 06:59N 50°05' W 125°13'0 0.0
2018-Aug-18 06:26N 50°05' W 125°13'0 0.1
2018-Aug-18 05:53N 50°05' W 125°13'0 0.0
2018-Aug-18 05:29N 50°05' W 125°13'0 0.0
2018-Aug-18 04:59N 50°05' W 125°13'0 0.0
2018-Aug-18 04:26N 50°05' W 125°13'0 0.0
2018-Aug-18 03:59N 50°05' W 125°13'0 0.0
2018-Aug-18 03:20N 50°05' W 125°13'0 0.0
2018-Aug-18 02:56N 50°05' W 125°13'0 0.8
2018-Aug-18 02:29N 50°04' W 125°13'3 6.5
2018-Aug-18 02:00N 50°06' W 125°17'712.1
2018-Aug-18 01:27N 50°12' W 125°22'1 0.1
2018-Aug-17 18:35N 50°11' W 125°22'110.6
2018-Aug-17 18:28N 50°10' W 125°22'5 9.7
2018-Aug-17 18:00N 50°06' W 125°18'4 8.9
2018-Aug-17 17:30N 50°02' W 125°14'0 0.4
2018-Aug-17 16:58N 50°02' W 125°15'0 0.0
2018-Aug-17 16:28N 50°02' W 125°15'0 0.0
2018-Aug-17 15:58N 50°02' W 125°15'0 0.0
2018-Aug-17 15:22N 50°02' W 125°15'0 0.0
2018-Aug-17 14:58N 50°02' W 125°15'0 0.0
2018-Aug-17 13:58N 50°02' W 125°15'0 0.0
2018-Aug-17 13:28N 50°02' W 125°15'0 0.0
2018-Aug-17 12:58N 50°02' W 125°15'0 0.0
2018-Aug-17 12:28N 50°02' W 125°15'0 0.0
2018-Aug-17 11:58N 50°02' W 125°15'0 0.0
2018-Aug-17 11:28N 50°02' W 125°15'0 0.0
2018-Aug-17 10:58N 50°02' W 125°15'0 0.0
2018-Aug-17 10:28N 50°02' W 125°15'0 0.0
2018-Aug-17 09:58N 50°02' W 125°15'0 0.0
2018-Aug-17 09:28N 50°02' W 125°15'0 0.0
2018-Aug-17 08:58N 50°02' W 125°15'0 0.0
2018-Aug-17 08:28N 50°02' W 125°15'0 0.0
2018-Aug-17 07:58N 50°02' W 125°15'0 0.0
2018-Aug-17 07:28N 50°02' W 125°15'0 0.0
2018-Aug-17 06:58N 50°02' W 125°15'0 0.0
2018-Aug-17 06:28N 50°02' W 125°15'0 0.0
2018-Aug-17 05:58N 50°02' W 125°15'0 0.0
2018-Aug-17 05:28N 50°02' W 125°15'0 0.0
2018-Aug-17 04:58N 50°02' W 125°15'0 0.0
2018-Aug-17 04:28N 50°02' W 125°15'0 0.0
2018-Aug-17 03:58N 50°02' W 125°15'0 0.0
2018-Aug-17 03:28N 50°02' W 125°15'0 0.0
2018-Aug-17 02:58N 50°02' W 125°15'0 0.0
2018-Aug-17 02:28N 50°02' W 125°15'0 0.0
2018-Aug-17 01:58N 50°02' W 125°15'0 0.0
2018-Aug-17 01:28N 50°02' W 125°15'0 0.0
2018-Aug-17 00:58N 50°02' W 125°15'0 0.0
2018-Aug-17 00:28N 50°02' W 125°15'0 0.0
2018-Aug-16 23:58N 50°02' W 125°15'0 0.0
2018-Aug-16 23:28N 50°02' W 125°15'0 0.0
2018-Aug-16 22:58N 50°02' W 125°15'0 0.0
2018-Aug-16 22:28N 50°02' W 125°15'0 0.0
2018-Aug-16 21:59N 50°02' W 125°15'0 0.0
2018-Aug-16 21:28N 50°02' W 125°15'0 0.0
2018-Aug-16 20:58N 50°02' W 125°15'0 0.0
2018-Aug-16 20:28N 50°02' W 125°15'0 0.0
2018-Aug-16 19:58N 50°02' W 125°15'0 0.0
2018-Aug-16 19:28N 50°02' W 125°15'0 0.0
2018-Aug-16 18:58N 50°02' W 125°15'0 0.0
2018-Aug-16 18:22N 50°02' W 125°15'0 0.0
2018-Aug-16 17:58N 50°02' W 125°15'0 0.0
2018-Aug-16 17:28N 50°02' W 125°15'0 0.0
2018-Aug-16 16:55N 50°02' W 125°15'0 0.0
2018-Aug-16 16:28N 50°02' W 125°15'0 0.0
2018-Aug-16 15:58N 50°02' W 125°15'0 0.0
2018-Aug-16 15:28N 50°02' W 125°15'0 0.0
2018-Aug-16 14:58N 50°02' W 125°15'0 0.0
2018-Aug-16 14:28N 50°02' W 125°15'0 0.0
2018-Aug-16 13:58N 50°02' W 125°15'0 0.0
2018-Aug-16 13:28N 50°02' W 125°15'0 0.0
2018-Aug-16 12:58N 50°02' W 125°15'0 0.0
2018-Aug-16 12:25N 50°02' W 125°15'0 0.0
2018-Aug-16 11:58N 50°02' W 125°15'0 0.0
2018-Aug-16 11:28N 50°02' W 125°15'0 0.0
2018-Aug-16 10:55N 50°02' W 125°15'0 0.0
2018-Aug-16 10:28N 50°02' W 125°15'0 0.0
2018-Aug-16 09:58N 50°02' W 125°15'0 0.0
2018-Aug-16 09:28N 50°02' W 125°15'0 0.0
2018-Aug-16 08:58N 50°02' W 125°15'0 0.0
2018-Aug-16 08:28N 50°02' W 125°15'0 0.0
2018-Aug-16 07:58N 50°02' W 125°15'0 0.0
2018-Aug-16 07:28N 50°02' W 125°15'0 0.0
2018-Aug-16 06:58N 50°02' W 125°15'0 0.0
2018-Aug-16 06:28N 50°02' W 125°15'0 0.0
2018-Aug-16 05:58N 50°02' W 125°15'0 0.0
2018-Aug-16 05:28N 50°02' W 125°15'0 0.0
2018-Aug-16 04:58N 50°02' W 125°15'0 0.0
2018-Aug-16 04:28N 50°02' W 125°15'0 0.0
2018-Aug-16 03:58N 50°02' W 125°15'0 0.0
2018-Aug-16 03:28N 50°02' W 125°15'0 0.0
2018-Aug-16 02:58N 50°02' W 125°15'0 0.0
2018-Aug-16 02:28N 50°02' W 125°15'0 0.0
2018-Aug-16 01:58N 50°02' W 125°15'0 0.0
2018-Aug-16 01:28N 50°02' W 125°15'0 0.0
2018-Aug-16 00:58N 50°02' W 125°15'0 0.0
2018-Aug-16 00:28N 50°02' W 125°15'0 0.0
2018-Aug-15 23:58N 50°02' W 125°15'0 0.0
2018-Aug-15 23:29N 50°02' W 125°15'1 2.8
2018-Aug-15 22:59N 50°03' W 125°15'1 2.6
2018-Aug-15 22:28N 50°04' W 125°13'0 0.1
2018-Aug-15 21:55N 50°04' W 125°13'0 0.0
2018-Aug-15 20:58N 50°04' W 125°13'0 0.0
2018-Aug-15 20:28N 50°04' W 125°13'0 0.0
2018-Aug-15 19:55N 50°04' W 125°13'0 0.0
2018-Aug-15 19:28N 50°04' W 125°13'0 0.0
2018-Aug-15 18:46N 50°04' W 125°13'0 0.0
2018-Aug-15 18:28N 50°04' W 125°13'0 0.0
2018-Aug-15 16:04N 50°04' W 125°13'0 0.0
2018-Aug-15 15:58N 50°04' W 125°13'0 0.0
2018-Aug-15 15:25N 50°04' W 125°13'0 0.0
2018-Aug-15 14:55N 50°04' W 125°13'0 0.1
2018-Aug-15 14:28N 50°04' W 125°13'0 0.1
2018-Aug-15 13:55N 50°04' W 125°13'0 0.0
2018-Aug-15 13:25N 50°04' W 125°13'0 0.0
2018-Aug-15 12:55N 50°04' W 125°13'0 0.0
2018-Aug-15 12:25N 50°04' W 125°13'0 0.0
2018-Aug-15 11:40N 50°04' W 125°13'0 0.0
2018-Aug-15 11:28N 50°04' W 125°13'0 0.1
2018-Aug-15 10:49N 50°04' W 125°13'0 0.0
2018-Aug-15 10:19N 50°04' W 125°13'0 0.0
2018-Aug-15 09:58N 50°04' W 125°13'0 0.0
2018-Aug-15 09:28N 50°04' W 125°13'0 0.0
2018-Aug-15 08:58N 50°04' W 125°13'0 0.0
2018-Aug-15 08:25N 50°04' W 125°13'0 0.0
2018-Aug-15 07:58N 50°04' W 125°13'0 0.0
2018-Aug-15 07:28N 50°04' W 125°13'0 0.0
2018-Aug-15 06:55N 50°04' W 125°13'0 0.0
2018-Aug-15 06:28N 50°04' W 125°13'0 0.0
2018-Aug-15 05:55N 50°04' W 125°13'0 0.1
2018-Aug-15 05:28N 50°04' W 125°13'0 0.1
2018-Aug-15 04:55N 50°04' W 125°13'0 0.0
2018-Aug-15 04:22N 50°04' W 125°13'0 0.1
2018-Aug-15 03:58N 50°04' W 125°13'0 0.0
2018-Aug-15 03:25N 50°04' W 125°13'0 0.0
2018-Aug-15 02:58N 50°04' W 125°13'0 0.0
2018-Aug-15 02:28N 50°04' W 125°13'0 0.0
2018-Aug-15 01:55N 50°04' W 125°13'0 0.0
2018-Aug-15 01:28N 50°04' W 125°13'0 0.0
2018-Aug-15 00:52N 50°04' W 125°13'0 0.1
2018-Aug-15 00:25N 50°04' W 125°13'0 0.1
2018-Aug-14 23:49N 50°04' W 125°13'0 0.0
2018-Aug-14 23:01N 50°04' W 125°13'0 0.0
2018-Aug-14 22:58N 50°04' W 125°13'0 0.1
2018-Aug-14 22:28N 50°04' W 125°13'0 0.1
2018-Aug-14 21:55N 50°04' W 125°13'0 0.0
2018-Aug-14 21:16N 50°04' W 125°13'0 0.0
2018-Aug-14 20:55N 50°04' W 125°13'0 0.1
2018-Aug-14 20:25N 50°04' W 125°13'0 0.0
2018-Aug-14 19:43N 50°04' W 125°13'0 0.0
2018-Aug-14 19:19N 50°04' W 125°13'0 0.0
2018-Aug-14 18:58N 50°04' W 125°13'0 0.0
2018-Aug-14 18:25N 50°04' W 125°13'0 0.0
2018-Aug-14 17:55N 50°04' W 125°13'0 0.0
2018-Aug-14 17:19N 50°04' W 125°13'0 0.1
2018-Aug-14 16:58N 50°04' W 125°13'0 0.0
2018-Aug-14 16:28N 50°04' W 125°13'0 0.0
2018-Aug-14 15:58N 50°04' W 125°13'0 0.0
2018-Aug-14 15:25N 50°04' W 125°13'0 0.0
2018-Aug-14 14:55N 50°04' W 125°13'0 0.0
2018-Aug-14 14:25N 50°04' W 125°13'0 0.0
2018-Aug-14 13:55N 50°04' W 125°13'0 0.0
2018-Aug-14 13:28N 50°04' W 125°13'0 0.0
2018-Aug-14 12:58N 50°04' W 125°13'0 0.0
2018-Aug-14 12:28N 50°04' W 125°13'0 0.0
2018-Aug-14 11:55N 50°04' W 125°13'0 0.0
2018-Aug-14 11:25N 50°04' W 125°13'0 0.0
2018-Aug-14 10:55N 50°04' W 125°13'0 0.0
2018-Aug-14 10:28N 50°04' W 125°13'0 0.1
2018-Aug-14 09:52N 50°04' W 125°13'0 0.0
2018-Aug-14 09:22N 50°04' W 125°13'0 0.1
2018-Aug-14 08:55N 50°04' W 125°13'0 0.1
2018-Aug-14 08:28N 50°04' W 125°13'0 0.1
2018-Aug-14 07:58N 50°04' W 125°13'0 0.1
2018-Aug-14 07:25N 50°04' W 125°13'0 0.0
2018-Aug-14 06:55N 50°04' W 125°13'0 0.0
2018-Aug-14 06:28N 50°04' W 125°13'0 0.0
2018-Aug-14 05:58N 50°04' W 125°13'0 0.0
2018-Aug-14 05:25N 50°04' W 125°13'0 0.0
2018-Aug-14 04:52N 50°04' W 125°13'0 0.0
2018-Aug-14 04:28N 50°04' W 125°13'0 0.0
2018-Aug-14 03:55N 50°04' W 125°13'0 0.0
2018-Aug-14 03:28N 50°04' W 125°13'0 0.1
2018-Aug-14 02:52N 50°04' W 125°13'0 0.0
2018-Aug-14 02:13N 50°04' W 125°13'0 0.0
2018-Aug-14 01:58N 50°04' W 125°13'0 0.0
2018-Aug-14 01:25N 50°04' W 125°13'0 0.0
2018-Aug-14 00:49N 50°04' W 125°13'0 0.0
2018-Aug-14 00:28N 50°04' W 125°13'0 0.0
2018-Aug-13 23:58N 50°04' W 125°13'0 0.0
2018-Aug-13 23:25N 50°04' W 125°13'0 0.1
2018-Aug-13 22:58N 50°04' W 125°13'0 0.1
2018-Aug-13 22:10N 50°04' W 125°13'0 0.1
2018-Aug-13 21:49N 50°04' W 125°13'0 0.1
2018-Aug-13 21:22N 50°04' W 125°13'0 0.0
2018-Aug-13 20:58N 50°04' W 125°13'0 0.1
2018-Aug-13 20:28N 50°04' W 125°13'0 0.0
2018-Aug-13 19:55N 50°04' W 125°13'0 0.0
2018-Aug-13 19:16N 50°04' W 125°13'0 0.0
2018-Aug-13 18:58N 50°04' W 125°13'0 0.0
2018-Aug-13 18:28N 50°04' W 125°13'0 0.0
2018-Aug-13 17:46N 50°04' W 125°13'0 0.1
2018-Aug-13 17:19N 50°04' W 125°13'0 0.1
2018-Aug-13 16:58N 50°04' W 125°13'0 0.1
2018-Aug-13 16:25N 50°04' W 125°13'0 0.0
2018-Aug-13 15:58N 50°04' W 125°13'0 0.0
2018-Aug-13 14:19N 50°04' W 125°13'0 0.0
2018-Aug-13 13:55N 50°04' W 125°13'0 0.1
2018-Aug-13 13:28N 50°04' W 125°13'0 0.0
2018-Aug-13 12:55N 50°04' W 125°13'0 0.0
2018-Aug-13 12:28N 50°04' W 125°13'0 0.0
2018-Aug-13 11:55N 50°04' W 125°13'0 0.0
2018-Aug-13 11:25N 50°04' W 125°13'0 0.1
2018-Aug-13 10:58N 50°04' W 125°13'0 0.1
2018-Aug-13 10:25N 50°04' W 125°13'0 0.1
2018-Aug-13 09:58N 50°04' W 125°13'0 0.0
2018-Aug-13 09:28N 50°04' W 125°13'0 0.0
2018-Aug-13 08:55N 50°04' W 125°13'0 0.0
2018-Aug-13 08:28N 50°04' W 125°13'0 0.0
2018-Aug-13 07:52N 50°04' W 125°13'0 0.0
2018-Aug-13 07:25N 50°04' W 125°13'0 0.0
2018-Aug-13 06:49N 50°04' W 125°13'0 0.0
2018-Aug-13 06:13N 50°04' W 125°13'0 0.0
2018-Aug-13 05:52N 50°04' W 125°13'0 0.0
2018-Aug-13 05:16N 50°04' W 125°13'0 0.0
2018-Aug-13 04:52N 50°04' W 125°13'0 0.0
2018-Aug-13 04:25N 50°04' W 125°13'0 0.0
2018-Aug-13 03:58N 50°04' W 125°13'0 0.0
2018-Aug-13 03:13N 50°04' W 125°13'0 0.0
2018-Aug-13 02:58N 50°04' W 125°13'0 0.1
2018-Aug-13 02:25N 50°04' W 125°13'0 0.0
2018-Aug-13 01:52N 50°04' W 125°13'0 0.0
2018-Aug-13 01:22N 50°04' W 125°13'0 0.0
2018-Aug-13 00:58N 50°04' W 125°13'0 0.0
2018-Aug-13 00:28N 50°04' W 125°13'0 0.0
2018-Aug-12 23:55N 50°04' W 125°13'0 0.0
2018-Aug-12 23:28N 50°04' W 125°13'0 0.0
2018-Aug-12 22:58N 50°04' W 125°13'0 0.0
2018-Aug-12 22:28N 50°04' W 125°13'0 0.0
2018-Aug-12 21:58N 50°04' W 125°13'0 0.1
2018-Aug-12 21:22N 50°04' W 125°13'0 0.1
2018-Aug-12 20:58N 50°04' W 125°13'0 0.0
2018-Aug-12 20:22N 50°04' W 125°13'0 0.0
2018-Aug-12 19:58N 50°04' W 125°13'0 0.0
2018-Aug-12 19:28N 50°04' W 125°13'0 0.1
2018-Aug-12 18:49N 50°04' W 125°13'0 0.0
2018-Aug-12 18:16N 50°04' W 125°13'0 0.0
2018-Aug-12 17:58N 50°04' W 125°13'0 0.0
2018-Aug-12 17:28N 50°04' W 125°13'0 0.0
2018-Aug-12 16:58N 50°04' W 125°13'0 0.0
2018-Aug-12 16:28N 50°04' W 125°13'0 0.0
2018-Aug-12 15:58N 50°04' W 125°13'0 0.0
2018-Aug-12 15:19N 50°04' W 125°13'0 0.0
2018-Aug-12 15:00N 50°04' W 125°13'0 0.0
2018-Aug-12 14:30N 50°04' W 125°13'0 0.0
2018-Aug-12 13:30N 50°04' W 125°13'0 0.0
2018-Aug-12 13:00N 50°04' W 125°13'0 0.0
2018-Aug-12 12:24N 50°04' W 125°13'0 0.0
2018-Aug-12 12:00N 50°04' W 125°13'0 0.0
2018-Aug-12 11:30N 50°04' W 125°13'0 0.0
2018-Aug-12 10:57N 50°04' W 125°13'0 0.0
2018-Aug-12 10:30N 50°04' W 125°13'0 0.0
2018-Aug-12 09:57N 50°04' W 125°13'0 0.0
2018-Aug-12 09:30N 50°04' W 125°13'0 0.0
2018-Aug-12 08:54N 50°04' W 125°13'0 0.0
2018-Aug-12 08:30N 50°04' W 125°13'0 0.0
2018-Aug-12 07:45N 50°04' W 125°13'0 0.0
2018-Aug-12 07:30N 50°04' W 125°13'0 0.1
2018-Aug-12 07:00N 50°04' W 125°13'0 0.1
2018-Aug-12 06:27N 50°04' W 125°13'0 0.1
2018-Aug-12 05:45N 50°04' W 125°13'0 0.1
2018-Aug-12 05:21N 50°04' W 125°13'0 0.0
2018-Aug-12 04:57N 50°04' W 125°13'0 0.0
2018-Aug-12 04:30N 50°04' W 125°13'0 0.0
2018-Aug-12 03:57N 50°04' W 125°13'0 0.1
2018-Aug-12 03:30N 50°04' W 125°13'0 0.1
2018-Aug-12 03:00N 50°04' W 125°13'0 0.0
2018-Aug-12 02:24N 50°04' W 125°13'0 0.0
2018-Aug-12 01:57N 50°04' W 125°13'0 0.1
2018-Aug-12 01:27N 50°04' W 125°13'0 0.0
2018-Aug-12 00:57N 50°04' W 125°13'0 0.0
2018-Aug-12 00:27N 50°04' W 125°13'0 0.0
2018-Aug-11 23:57N 50°04' W 125°13'0 0.1
2018-Aug-11 23:30N 50°04' W 125°13'0 0.1
2018-Aug-11 23:00N 50°04' W 125°13'0 0.1
2018-Aug-11 22:30N 50°04' W 125°13'0 0.0
2018-Aug-11 22:00N 50°04' W 125°13'0 0.1
2018-Aug-11 21:30N 50°04' W 125°13'0 0.1
2018-Aug-11 20:57N 50°04' W 125°13'0 0.0
2018-Aug-11 20:27N 50°04' W 125°13'0 0.1
2018-Aug-11 19:54N 50°04' W 125°13'0 0.1
2018-Aug-11 19:30N 50°04' W 125°13'0 0.1
2018-Aug-11 18:54N 50°04' W 125°13'0 0.0
2018-Aug-11 18:21N 50°04' W 125°13'0 0.0
2018-Aug-11 17:42N 50°04' W 125°13'0 0.0
2018-Aug-11 17:30N 50°04' W 125°13'0 0.0
2018-Aug-11 16:54N 50°04' W 125°13'0 0.0
2018-Aug-11 16:24N 50°04' W 125°13'0 0.0
2018-Aug-11 15:57N 50°04' W 125°13'0 0.1
2018-Aug-11 15:30N 50°04' W 125°13'0 0.1
2018-Aug-11 15:00N 50°04' W 125°13'0 0.0
2018-Aug-11 14:30N 50°04' W 125°13'0 0.0
2018-Aug-11 13:57N 50°04' W 125°13'0 0.0
2018-Aug-11 13:09N 50°04' W 125°13'0 0.0
2018-Aug-11 13:00N 50°04' W 125°13'0 0.0
2018-Aug-11 12:27N 50°04' W 125°13'0 0.0
2018-Aug-11 12:00N 50°04' W 125°13'0 0.1
2018-Aug-11 11:30N 50°04' W 125°13'0 0.1
2018-Aug-11 11:00N 50°04' W 125°13'0 0.0
2018-Aug-11 10:30N 50°04' W 125°13'0 0.0
2018-Aug-11 09:51N 50°04' W 125°13'0 0.0
2018-Aug-11 09:27N 50°04' W 125°13'0 0.0
2018-Aug-11 08:54N 50°04' W 125°13'0 0.0
2018-Aug-11 08:27N 50°04' W 125°13'0 0.0
2018-Aug-11 08:00N 50°04' W 125°13'0 0.0
2018-Aug-11 07:12N 50°04' W 125°13'0 0.0
2018-Aug-11 07:00N 50°04' W 125°13'0 0.0
2018-Aug-11 06:24N 50°04' W 125°13'0 0.0
2018-Aug-11 05:51N 50°04' W 125°13'0 0.0
2018-Aug-11 05:21N 50°04' W 125°13'0 0.0
2018-Aug-11 05:00N 50°04' W 125°13'0 0.1
2018-Aug-11 04:24N 50°04' W 125°13'0 0.1
2018-Aug-11 03:57N 50°04' W 125°13'0 0.0
2018-Aug-11 03:27N 50°04' W 125°13'0 0.0
2018-Aug-11 02:39N 50°04' W 125°13'0 0.0
2018-Aug-11 02:27N 50°04' W 125°13'0 0.0
2018-Aug-11 01:54N 50°04' W 125°13'0 0.0
2018-Aug-11 01:30N 50°04' W 125°13'0 0.0
2018-Aug-11 01:00N 50°04' W 125°13'0 0.0
2018-Aug-11 00:30N 50°04' W 125°13'0 0.0
2018-Aug-10 23:54N 50°04' W 125°13'0 0.0
2018-Aug-10 23:30N 50°04' W 125°13'0 0.1
2018-Aug-10 23:00N 50°04' W 125°13'0 0.0
2018-Aug-10 22:30N 50°04' W 125°13'0 0.0
2018-Aug-10 21:54N 50°04' W 125°13'0 0.0
2018-Aug-10 21:24N 50°04' W 125°13'0 0.0
2018-Aug-10 20:57N 50°04' W 125°13'0 0.0
2018-Aug-10 20:30N 50°04' W 125°13'0 0.0
2018-Aug-10 20:00N 50°04' W 125°13'0 0.0
2018-Aug-10 19:24N 50°04' W 125°13'0 0.0
2018-Aug-10 19:00N 50°04' W 125°13'0 0.0
2018-Aug-10 18:24N 50°04' W 125°13'0 0.0
2018-Aug-10 17:24N 50°04' W 125°13'0 0.1
2018-Aug-10 17:00N 50°04' W 125°13'0 0.0
2018-Aug-10 16:30N 50°04' W 125°13'  

Dump ship's entire track history